Time;durP1;ratioP1;P1;durP2;ratioP2;P2;SDS_P1;SDS_P2;PMS_P1;PMS_P2;Temp;Humidity;BMP_temperature;BMP_pressure;BME280_temperature;BME280_humidity;BME280_pressure;Samples;Min_cycle;Max_cycle;Signal;HPM_P1;HPM_P2
2022/04/11 00:02:06;;;;;;;5.18;2.28;;;4.80;99.90;;;;;;5116974;27;20422;-68
2022/04/11 00:04:32;;;;;;;7.28;2.58;;;4.70;99.90;;;;;;5114166;27;20483;-67
2022/04/11 00:06:57;;;;;;;3.72;2.10;;;4.70;99.90;;;;;;5129825;27;20129;-67
2022/04/11 00:09:23;;;;;;;7.07;2.65;;;4.70;99.90;;;;;;5109637;27;20047;-67
2022/04/11 00:11:48;;;;;;;5.53;2.88;;;4.70;99.90;;;;;;5122523;27;20142;-67
2022/04/11 00:14:14;;;;;;;5.30;2.22;;;4.60;99.90;;;;;;5117442;27;20043;-67
2022/04/11 00:16:40;;;;;;;5.93;2.60;;;4.60;99.90;;;;;;5129596;27;20505;-68
2022/04/11 00:19:08;;;;;;;6.22;2.13;;;4.70;99.90;;;;;;5127439;27;20042;-68
2022/04/11 00:21:34;;;;;;;6.18;2.70;;;4.60;99.90;;;;;;5111268;27;20035;-68
2022/04/11 00:23:59;;;;;;;4.93;2.35;;;4.70;99.90;;;;;;5108401;28;20044;-67
2022/04/11 00:26:25;;;;;;;4.32;2.40;;;4.60;99.90;;;;;;5109677;27;20096;-67
2022/04/11 00:28:51;;;;;;;5.18;2.70;;;4.60;99.90;;;;;;5090297;28;20116;-67
2022/04/11 00:31:17;;;;;;;4.45;2.40;;;4.60;99.90;;;;;;5108527;28;20093;-67
2022/04/11 00:33:42;;;;;;;8.15;2.95;;;4.50;99.90;;;;;;5090751;28;20043;-67
2022/04/11 00:36:08;;;;;;;5.30;2.60;;;4.50;99.90;;;;;;5128986;27;20066;-67
2022/04/11 00:38:33;;;;;;;6.15;2.38;;;4.50;99.90;;;;;;5127248;27;20404;-67
2022/04/11 00:40:59;;;;;;;8.15;2.47;;;4.50;99.90;;;;;;5126750;27;20042;-67
2022/04/11 00:43:32;;;;;;;5.63;2.50;;;4.50;99.90;;;;;;5113661;28;20050;-67
2022/04/11 00:45:58;;;;;;;4.85;2.20;;;4.20;99.90;;;;;;5130166;27;20039;-66
2022/04/11 00:48:23;;;;;;;6.47;2.28;;;4.50;99.90;;;;;;5115722;27;20476;-67
2022/04/11 00:50:53;;;;;;;5.30;2.10;;;4.40;99.90;;;;;;5118556;28;20133;-67
2022/04/11 00:53:19;;;;;;;5.22;2.20;;;4.40;99.90;;;;;;5087828;28;20052;-67
2022/04/11 00:55:45;;;;;;;5.63;2.30;;;4.40;99.90;;;;;;5121008;28;20051;-67
2022/04/11 00:58:12;;;;;;;6.97;2.70;;;4.40;99.90;;;;;;5092230;28;20039;-66
2022/04/11 01:00:38;;;;;;;5.20;2.72;;;4.40;99.90;;;;;;5107309;28;20478;-67
2022/04/11 01:03:04;;;;;;;5.50;2.20;;;4.40;99.90;;;;;;5090445;28;20123;-67
2022/04/11 01:05:30;;;;;;;5.28;2.10;;;4.40;99.90;;;;;;5122064;28;20118;-67
2022/04/11 01:08:04;;;;;;;6.28;2.30;;;4.40;99.90;;;;;;5129561;28;20059;-67
2022/04/11 01:10:30;;;;;;;5.15;2.40;;;4.40;99.90;;;;;;5096690;28;20043;-67
2022/04/11 01:12:55;;;;;;;4.53;2.00;;;4.40;99.90;;;;;;5090885;28;20054;-67
2022/04/11 01:15:21;;;;;;;5.70;2.40;;;4.30;99.90;;;;;;5108191;28;20107;-66
2022/04/11 01:17:46;;;;;;;4.97;1.90;;;4.30;99.90;;;;;;5089809;28;20048;-66
2022/04/11 01:20:13;;;;;;;5.07;2.10;;;4.30;99.90;;;;;;5115853;28;20510;-68
2022/04/11 01:22:40;;;;;;;5.72;2.00;;;4.30;99.90;;;;;;5128369;28;20043;-68
2022/04/11 01:25:06;;;;;;;8.40;2.40;;;4.20;99.90;;;;;;5121062;28;20066;-68
2022/04/11 01:27:32;;;;;;;6.32;2.75;;;4.20;99.90;;;;;;5127394;28;20039;-67
2022/04/11 01:29:58;;;;;;;5.63;2.08;;;4.90;99.90;;;;;;5113572;27;20543;-68
2022/04/11 01:32:24;;;;;;;4.47;2.35;;;4.20;99.90;;;;;;5124601;28;20047;-68
2022/04/11 01:34:50;;;;;;;5.53;2.35;;;4.20;99.90;;;;;;5106843;28;20096;-67
2022/04/11 01:37:16;;;;;;;4.53;2.10;;;4.20;99.90;;;;;;5107135;28;20035;-67
2022/04/11 01:39:42;;;;;;;4.35;2.35;;;5.10;99.90;;;;;;5100071;28;20071;-67
2022/04/11 01:42:07;;;;;;;5.60;2.50;;;4.20;99.90;;;;;;5110161;27;20157;-68
2022/04/11 01:44:33;;;;;;;7.07;2.67;;;4.20;99.90;;;;;;5111035;27;20043;-67
2022/04/11 01:46:59;;;;;;;7.45;2.20;;;4.10;99.90;;;;;;5111626;27;20054;-67
2022/04/11 01:49:24;;;;;;;5.25;2.40;;;4.20;99.90;;;;;;5112442;28;20035;-67
2022/04/11 01:51:51;;;;;;;7.43;2.95;;;4.10;99.90;;;;;;5126097;27;20047;-67
2022/04/11 01:54:17;;;;;;;7.57;2.53;;;4.20;99.90;;;;;;5117596;27;20059;-67
2022/04/11 01:56:43;;;;;;;6.40;2.60;;;5.60;99.90;;;;;;5110909;28;20066;-67
2022/04/11 01:59:08;;;;;;;5.28;2.70;;;4.20;99.90;;;;;;5092100;28;20098;-68
2022/04/11 02:01:34;;;;;;;5.75;2.70;;;4.20;99.90;;;;;;5111644;27;20051;-68
2022/04/11 02:03:59;;;;;;;8.70;2.83;;;4.20;99.90;;;;;;5110969;27;20103;-68
2022/04/11 02:06:25;;;;;;;7.43;2.80;;;4.20;99.90;;;;;;5111920;28;20044;-68
2022/04/11 02:08:50;;;;;;;7.90;2.53;;;4.20;99.90;;;;;;5112406;27;20043;-67
2022/04/11 02:11:16;;;;;;;3.70;2.42;;;4.10;99.90;;;;;;5073814;28;20039;-67
2022/04/11 02:13:42;;;;;;;5.65;2.65;;;4.10;99.90;;;;;;5101370;27;20528;-67
2022/04/11 02:16:07;;;;;;;6.03;2.70;;;4.50;99.90;;;;;;5132173;27;20043;-67
2022/04/11 02:18:33;;;;;;;9.15;2.65;;;4.10;99.90;;;;;;5123658;27;20051;-67
2022/04/11 02:20:58;;;;;;;4.93;2.70;;;4.20;99.90;;;;;;5111630;28;20047;-67
2022/04/11 02:23:24;;;;;;;5.75;2.95;;;4.10;99.90;;;;;;5110758;27;20068;-66
2022/04/11 02:25:50;;;;;;;5.78;2.70;;;4.20;99.90;;;;;;5092523;28;20169;-67
2022/04/11 02:28:15;;;;;;;4.82;2.53;;;4.10;99.90;;;;;;5111757;27;20126;-67
2022/04/11 02:30:41;;;;;;;6.88;2.60;;;4.20;99.90;;;;;;5091286;28;20502;-67
2022/04/11 02:33:07;;;;;;;6.43;2.80;;;4.10;99.90;;;;;;5110885;28;20032;-67
2022/04/11 02:35:33;;;;;;;8.75;2.80;;;4.10;99.90;;;;;;5118732;27;20044;-67
2022/04/11 02:37:59;;;;;;;6.20;2.50;;;4.10;99.90;;;;;;5110712;28;20494;-68
2022/04/11 02:40:24;;;;;;;5.38;2.90;;;4.10;99.90;;;;;;5111097;28;20132;-68
2022/04/11 02:42:50;;;;;;;7.93;2.78;;;4.00;99.90;;;;;;5109928;28;20432;-68
2022/04/11 02:45:16;;;;;;;6.10;2.90;;;4.10;99.90;;;;;;5109896;27;20042;-67
2022/04/11 02:47:42;;;;;;;7.00;3.03;;;4.00;99.90;;;;;;5110932;27;20100;-68
2022/04/11 02:50:08;;;;;;;6.55;2.80;;;4.00;99.90;;;;;;5092338;27;20028;-66
2022/04/11 02:52:34;;;;;;;6.53;2.85;;;4.00;99.90;;;;;;5093955;28;20048;-67
2022/04/11 02:55:00;;;;;;;7.07;2.60;;;3.90;99.90;;;;;;5109317;27;20050;-68
2022/04/11 02:57:26;;;;;;;7.22;2.45;;;3.90;99.90;;;;;;5110060;28;20036;-67
2022/04/11 02:59:52;;;;;;;6.10;2.80;;;3.90;99.90;;;;;;5116321;27;20054;-67
2022/04/11 03:02:18;;;;;;;7.03;2.95;;;3.90;99.90;;;;;;5133309;27;20425;-68
2022/04/11 03:04:44;;;;;;;4.30;2.50;;;3.90;99.90;;;;;;5130041;27;20426;-67
2022/04/11 03:07:10;;;;;;;6.38;2.67;;;3.90;99.90;;;;;;5111661;27;20043;-67
2022/04/11 03:09:36;;;;;;;7.43;2.78;;;3.80;99.90;;;;;;5129652;27;20042;-67
2022/04/11 03:12:01;;;;;;;6.40;3.17;;;3.80;99.90;;;;;;5129886;27;20047;-67
2022/04/11 03:14:27;;;;;;;4.72;2.50;;;3.90;99.90;;;;;;5113680;27;20102;-67
2022/04/11 03:16:53;;;;;;;8.68;2.97;;;3.80;99.90;;;;;;5109681;27;20031;-67
2022/04/11 03:19:20;;;;;;;4.53;2.90;;;4.50;99.90;;;;;;5110359;28;20472;-66
2022/04/11 03:21:46;;;;;;;5.25;2.47;;;3.80;99.90;;;;;;5109671;28;20425;-67
2022/04/11 03:24:11;;;;;;;7.38;2.78;;;3.80;99.90;;;;;;5111415;28;20043;-67
2022/04/11 03:26:37;;;;;;;5.65;2.97;;;3.80;99.90;;;;;;5111849;27;20484;-67
2022/04/11 03:29:03;;;;;;;5.55;2.90;;;3.80;99.90;;;;;;5109460;27;20165;-67
2022/04/11 03:31:28;;;;;;;5.90;2.78;;;3.80;99.90;;;;;;5125316;27;20451;-66
2022/04/11 03:33:54;;;;;;;7.47;3.30;;;4.20;99.90;;;;;;5112102;27;20050;-67
2022/04/11 03:36:24;;;;;;;8.98;3.58;;;3.90;99.90;;;;;;5110019;27;20032;-67
2022/04/11 03:38:50;;;;;;;8.23;3.10;;;4.00;99.90;;;;;;5097941;28;20040;-67
2022/04/11 03:41:16;;;;;;;5.63;3.00;;;4.00;99.90;;;;;;5110308;28;20668;-67
2022/04/11 03:43:41;;;;;;;5.85;3.00;;;4.00;99.90;;;;;;5121475;27;20171;-67
2022/04/11 03:46:07;;;;;;;5.55;2.90;;;4.00;99.90;;;;;;5131954;27;20039;-67
2022/04/11 03:48:33;;;;;;;6.28;3.13;;;4.10;99.90;;;;;;5129254;27;20395;-68
2022/04/11 03:50:58;;;;;;;8.43;3.30;;;4.10;99.90;;;;;;5092076;28;20112;-68
2022/04/11 03:53:24;;;;;;;5.80;3.20;;;4.10;99.90;;;;;;5109454;28;20056;-67
2022/04/11 03:55:49;;;;;;;6.72;3.45;;;4.20;99.90;;;;;;5110341;27;20040;-67
2022/04/11 03:58:15;;;;;;;9.30;3.63;;;4.20;99.90;;;;;;5126331;27;20050;-67
2022/04/11 04:00:41;;;;;;;6.85;3.40;;;4.20;99.90;;;;;;5112104;27;20071;-67
2022/04/11 04:03:09;;;;;;;8.25;3.83;;;4.30;99.90;;;;;;5108148;28;20039;-67
2022/04/11 04:05:45;;;;;;;6.30;3.30;;;4.30;99.90;;;;;;5091050;28;20036;-67
2022/04/11 04:08:12;;;;;;;7.88;3.50;;;4.30;99.90;;;;;;5091484;28;20104;-67
2022/04/11 04:10:40;;;;;;;7.22;3.72;;;4.30;99.90;;;;;;5093722;28;20043;-68
2022/04/11 04:13:06;;;;;;;6.43;3.40;;;4.40;99.90;;;;;;5071654;28;20119;-67
2022/04/11 04:15:32;;;;;;;5.40;3.38;;;4.40;99.90;;;;;;5099170;27;20509;-67
2022/04/11 04:17:58;;;;;;;7.05;3.80;;;4.40;99.90;;;;;;5092290;28;20054;-67
2022/04/11 04:20:26;;;;;;;8.50;3.50;;;4.40;99.90;;;;;;5121251;27;20043;-67
2022/04/11 04:22:52;;;;;;;9.93;4.50;;;4.40;99.90;;;;;;5110340;27;20046;-67
2022/04/11 04:25:18;;;;;;;10.90;4.45;;;4.40;99.90;;;;;;5109608;27;20491;-67
2022/04/11 04:27:43;;;;;;;9.05;4.10;;;4.50;99.90;;;;;;5112121;27;20050;-67
2022/04/11 04:30:09;;;;;;;7.43;4.38;;;4.50;99.90;;;;;;5097014;27;20036;-67
2022/04/11 04:32:35;;;;;;;9.27;4.15;;;4.50;99.90;;;;;;5104385;27;20103;-67
2022/04/11 04:35:01;;;;;;;8.48;3.63;;;4.50;99.90;;;;;;5090099;27;20073;-66
2022/04/11 04:37:27;;;;;;;6.95;3.65;;;4.50;99.90;;;;;;5108276;28;20134;-67
2022/04/11 04:39:52;;;;;;;7.70;3.40;;;4.50;99.90;;;;;;5108155;28;20479;-67
2022/04/11 04:42:26;;;;;;;7.35;3.70;;;4.50;99.90;;;;;;5108095;28;20050;-68
2022/04/11 04:44:52;;;;;;;9.45;3.38;;;4.50;99.90;;;;;;5110406;28;20058;-68
2022/04/11 04:47:18;;;;;;;7.95;3.35;;;4.50;99.90;;;;;;5109887;28;20084;-68
2022/04/11 04:49:45;;;;;;;5.90;3.30;;;4.50;99.90;;;;;;5125381;27;20047;-68
2022/04/11 04:52:11;;;;;;;10.70;3.55;;;4.50;99.90;;;;;;5128553;27;20115;-68
2022/04/11 04:54:37;;;;;;;7.70;3.58;;;4.50;99.90;;;;;;5110076;28;20472;-68
2022/04/11 04:57:03;;;;;;;5.80;3.20;;;4.60;99.90;;;;;;5107792;28;20077;-68
2022/04/11 04:59:29;;;;;;;5.90;3.28;;;4.50;99.90;;;;;;5105576;28;20040;-68
2022/04/11 05:01:55;;;;;;;9.00;3.30;;;4.60;99.90;;;;;;5105877;28;20563;-68
2022/04/11 05:04:20;;;;;;;7.30;3.95;;;4.60;99.90;;;;;;5119289;27;20043;-67
2022/04/11 05:06:46;;;;;;;6.85;3.53;;;4.60;99.90;;;;;;5127466;27;20118;-68
2022/04/11 05:09:11;;;;;;;7.75;3.80;;;4.70;99.90;;;;;;5128272;28;20126;-67
2022/04/11 05:11:37;;;;;;;8.15;4.07;;;4.70;99.90;;;;;;5109913;28;20043;-67
2022/04/11 05:14:03;;;;;;;11.93;3.75;;;4.70;99.90;;;;;;5114682;28;20043;-68
2022/04/11 05:16:29;;;;;;;10.80;3.85;;;4.70;99.90;;;;;;5099097;27;20084;-68
2022/04/11 05:18:54;;;;;;;7.20;3.90;;;4.70;99.90;;;;;;5130882;27;20152;-67
2022/04/11 05:21:20;;;;;;;7.93;3.60;;;4.70;99.90;;;;;;5128655;27;20130;-67
2022/04/11 05:23:46;;;;;;;7.68;4.00;;;4.60;99.90;;;;;;5132647;27;20099;-68
2022/04/11 05:26:12;;;;;;;10.13;4.10;;;4.70;99.90;;;;;;5132350;27;20121;-68
2022/04/11 05:28:37;;;;;;;6.93;3.75;;;4.70;99.90;;;;;;5130522;27;20161;-68
2022/04/11 05:31:03;;;;;;;8.85;3.78;;;4.70;99.90;;;;;;5109688;27;20055;-68
2022/04/11 05:33:28;;;;;;;9.82;3.78;;;4.70;99.90;;;;;;5095821;27;20544;-67
2022/04/11 05:35:56;;;;;;;10.05;3.75;;;4.70;99.90;;;;;;5111716;28;20036;-67
2022/04/11 05:38:22;;;;;;;7.35;3.80;;;4.70;99.90;;;;;;5112747;28;20118;-69
2022/04/11 05:40:48;;;;;;;9.23;3.35;;;4.70;99.90;;;;;;5111737;28;20040;-69
2022/04/11 05:43:14;;;;;;;7.35;4.03;;;4.80;99.90;;;;;;5111245;28;20148;-69
2022/04/11 05:45:41;;;;;;;8.10;3.67;;;4.80;99.90;;;;;;5111107;28;20399;-68
2022/04/11 05:48:07;;;;;;;7.80;3.70;;;4.90;99.90;;;;;;5111617;27;20043;-68
2022/04/11 05:50:33;;;;;;;9.32;3.40;;;4.90;99.90;;;;;;5112096;27;20047;-69
2022/04/11 05:52:58;;;;;;;7.78;3.35;;;4.90;99.90;;;;;;5075222;28;20052;-69
2022/04/11 05:55:24;;;;;;;14.18;3.60;;;5.00;99.90;;;;;;5095287;27;20079;-68
2022/04/11 05:57:50;;;;;;;16.83;4.18;;;5.00;99.90;;;;;;5091528;28;20050;-67
2022/04/11 06:00:16;;;;;;;11.52;3.65;;;5.00;99.90;;;;;;5111000;28;20126;-68
2022/04/11 06:02:42;;;;;;;9.15;3.50;;;5.00;99.90;;;;;;5112806;28;20043;-68
2022/04/11 06:05:09;;;;;;;11.57;3.70;;;5.10;99.90;;;;;;5111869;27;20048;-68
2022/04/11 06:07:36;;;;;;;9.18;3.30;;;5.10;99.90;;;;;;5095673;28;20499;-68
2022/04/11 06:10:02;;;;;;;10.63;3.45;;;5.10;99.90;;;;;;5109846;28;20126;-67
2022/04/11 06:12:28;;;;;;;5.88;3.17;;;5.20;99.90;;;;;;5092254;28;20202;-68
2022/04/11 06:14:54;;;;;;;10.07;4.35;;;5.20;99.90;;;;;;5090743;28;20130;-68
2022/04/11 06:17:23;;;;;;;8.27;3.55;;;5.20;99.90;;;;;;5110584;28;20054;-68
2022/04/11 06:19:50;;;;;;;12.30;3.92;;;5.20;99.90;;;;;;5106769;27;20044;-69
2022/04/11 06:22:17;;;;;;;7.22;3.90;;;5.20;99.90;;;;;;5101550;28;20040;-69
2022/04/11 06:24:46;;;;;;;11.15;4.07;;;5.10;99.90;;;;;;5108093;28;20039;-69
2022/04/11 06:27:12;;;;;;;8.70;3.67;;;5.30;99.90;;;;;;5108905;28;20082;-69
2022/04/11 06:29:39;;;;;;;8.25;4.15;;;5.30;99.90;;;;;;5090993;28;20063;-68
2022/04/11 06:32:05;;;;;;;11.38;4.57;;;5.40;99.90;;;;;;5110476;28;20123;-68
2022/04/11 06:34:38;;;;;;;10.32;4.28;;;5.40;99.90;;;;;;5110702;28;20394;-68
2022/04/11 06:37:04;;;;;;;16.55;4.20;;;5.50;99.90;;;;;;5092094;28;20438;-68
2022/04/11 06:39:30;;;;;;;7.82;4.03;;;5.50;99.90;;;;;;5111025;28;20046;-69
2022/04/11 06:41:56;;;;;;;8.23;3.70;;;5.60;99.90;;;;;;5109476;27;20031;-68
2022/04/11 06:44:22;;;;;;;6.05;3.33;;;5.70;99.90;;;;;;5108821;28;20086;-68
2022/04/11 06:46:48;;;;;;;8.80;3.70;;;5.70;99.90;;;;;;5108852;28;20813;-68
2022/04/11 06:49:14;;;;;;;6.25;3.42;;;5.80;99.90;;;;;;5110678;28;20126;-68
2022/04/11 06:51:40;;;;;;;6.32;3.33;;;5.90;99.90;;;;;;5109957;28;20071;-68
2022/04/11 06:54:06;;;;;;;10.68;3.80;;;5.90;99.90;;;;;;5109531;28;20087;-68
2022/04/11 06:56:31;;;;;;;6.90;3.30;;;6.00;99.90;;;;;;5104364;28;20500;-68
2022/04/11 06:58:57;;;;;;;5.60;3.10;;;6.20;99.90;;;;;;5089691;28;20043;-68
2022/04/11 07:01:23;;;;;;;9.35;3.90;;;6.30;99.90;;;;;;5071784;28;20120;-68
2022/04/11 07:03:48;;;;;;;9.57;3.85;;;6.40;99.90;;;;;;5089288;28;20044;-68
2022/04/11 07:06:14;;;;;;;13.48;4.30;;;6.50;99.90;;;;;;5110450;27;20491;-69
2022/04/11 07:08:40;;;;;;;12.18;4.65;;;6.70;99.90;;;;;;5109918;28;20051;-69
2022/04/11 07:11:06;;;;;;;11.60;3.90;;;6.80;99.90;;;;;;5109327;28;20046;-69
2022/04/11 07:13:33;;;;;;;12.18;3.80;;;6.90;99.90;;;;;;5107803;28;20043;-69
2022/04/11 07:15:59;;;;;;;11.00;3.95;;;7.10;99.90;;;;;;5091936;28;20040;-69
2022/04/11 07:18:27;;;;;;;8.02;3.42;;;7.10;99.90;;;;;;5109540;28;20242;-69
2022/04/11 07:20:56;;;;;;;7.93;3.78;;;7.20;99.90;;;;;;5113330;27;20047;-67
2022/04/11 07:23:22;;;;;;;9.50;3.70;;;7.30;99.90;;;;;;5116591;27;20044;-67
2022/04/11 07:25:48;;;;;;;9.15;3.78;;;7.50;99.90;;;;;;5113673;27;20039;-67
2022/04/11 07:28:16;;;;;;;10.75;4.03;;;7.70;99.90;;;;;;5111044;27;20472;-67
2022/04/11 07:30:42;;;;;;;8.45;3.53;;;7.80;99.90;;;;;;5109773;28;20040;-67
2022/04/11 07:33:09;;;;;;;16.15;3.45;;;7.90;99.90;;;;;;5104928;28;20050;-67
2022/04/11 07:35:34;;;;;;;10.82;3.70;;;8.10;99.90;;;;;;5091357;28;20050;-68
2022/04/11 07:38:01;;;;;;;9.93;3.80;;;8.20;99.90;;;;;;5103092;28;20408;-67
2022/04/11 07:40:28;;;;;;;8.65;3.40;;;8.30;99.90;;;;;;5118396;27;20062;-66
2022/04/11 07:42:54;;;;;;;9.48;3.75;;;8.50;99.90;;;;;;5129364;27;20496;-66
2022/04/11 07:45:22;;;;;;;8.10;3.45;;;8.70;99.90;;;;;;5129017;27;20082;-67
2022/04/11 07:47:48;;;;;;;9.98;3.80;;;8.90;99.90;;;;;;5128937;27;20043;-68
2022/04/11 07:50:14;;;;;;;8.57;3.40;;;9.20;99.90;;;;;;5130024;27;20047;-68
2022/04/11 07:52:42;;;;;;;7.32;2.83;;;9.40;99.90;;;;;;5103743;27;20052;-68
2022/04/11 07:55:10;;;;;;;6.40;2.80;;;9.60;99.90;;;;;;5069526;28;20155;-69
2022/04/11 07:57:35;;;;;;;6.68;2.40;;;9.80;99.90;;;;;;5088024;28;20089;-67
2022/04/11 08:00:01;;;;;;;5.88;2.70;;;10.00;99.90;;;;;;5069880;28;20048;-68
2022/04/11 08:02:27;;;;;;;7.47;2.85;;;10.20;99.90;;;;;;5069379;28;20381;-69
2022/04/11 08:04:54;;;;;;;6.47;2.80;;;10.30;99.90;;;;;;5087998;28;20501;-68
2022/04/11 08:07:20;;;;;;;6.63;2.97;;;10.40;99.90;;;;;;5089012;28;20101;-68
2022/04/11 08:09:46;;;;;;;8.93;2.70;;;10.50;99.90;;;;;;5077131;28;20055;-68
2022/04/11 08:12:11;;;;;;;7.38;3.25;;;10.70;99.90;;;;;;5108473;27;20047;-68
2022/04/11 08:14:37;;;;;;;9.45;2.90;;;11.00;99.90;;;;;;5100180;27;20187;-68
2022/04/11 08:17:03;;;;;;;6.55;2.85;;;11.20;99.90;;;;;;5120019;27;20051;-67
2022/04/11 08:19:32;;;;;;;9.80;3.28;;;11.40;99.90;;;;;;5100177;27;20440;-69
2022/04/11 08:21:58;;;;;;;7.63;3.05;;;11.50;99.90;;;;;;5108481;28;20494;-68
2022/04/11 08:24:24;;;;;;;7.13;2.85;;;12.20;99.90;;;;;;5108161;28;20114;-68
2022/04/11 08:26:49;;;;;;;8.88;2.95;;;11.70;99.90;;;;;;5107656;28;20046;-68
2022/04/11 08:29:17;;;;;;;7.57;3.30;;;11.90;99.90;;;;;;5107069;28;20040;-68
2022/04/11 08:31:43;;;;;;;9.82;3.40;;;12.40;99.90;;;;;;5092709;28;20101;-68
2022/04/11 08:34:09;;;;;;;6.53;3.50;;;12.70;99.90;;;;;;5088870;28;20055;-68
2022/04/11 08:36:35;;;;;;;6.50;2.95;;;13.10;99.90;;;;;;5110165;28;20051;-68
2022/04/11 08:39:00;;;;;;;10.00;3.13;;;12.90;99.90;;;;;;5119199;27;20496;-68
2022/04/11 08:41:32;;;;;;;6.80;2.97;;;13.80;99.00;;;;;;5129070;27;20082;-68
2022/04/11 08:44:00;;;;;;;9.07;3.15;;;14.00;98.70;;;;;;5100107;28;20054;-69
2022/04/11 08:46:28;;;;;;;7.75;2.90;;;14.10;98.50;;;;;;5100254;27;20042;-69
2022/04/11 08:48:54;;;;;;;8.13;2.95;;;14.20;97.90;;;;;;5069292;28;20087;-69
2022/04/11 08:51:19;;;;;;;8.75;2.85;;;14.60;97.30;;;;;;5088216;28;20400;-67
2022/04/11 08:53:45;;;;;;;6.57;2.60;;;14.20;97.40;;;;;;5089249;28;20406;-69
2022/04/11 08:56:11;;;;;;;7.78;2.58;;;14.20;97.60;;;;;;5086397;28;20075;-68
2022/04/11 08:58:37;;;;;;;9.52;3.35;;;14.20;97.70;;;;;;5086488;28;20090;-69
2022/04/11 09:01:02;;;;;;;6.10;2.45;;;14.40;96.90;;;;;;5121948;28;20464;-69
2022/04/11 09:03:28;;;;;;;5.57;3.15;;;14.60;97.50;;;;;;5110510;28;20070;-69
2022/04/11 09:06:06;;;;;;;7.88;2.80;;;14.80;97.70;;;;;;5105721;28;20476;-70
2022/04/11 09:08:49;;;;;;;8.52;2.90;;;15.10;97.00;;;;;;5107594;28;20090;-70
2022/04/11 09:11:28;;;;;;;7.10;2.90;;;15.50;96.20;;;;;;5107686;28;20383;-70
2022/04/11 09:13:54;;;;;;;9.98;2.58;;;15.60;95.80;;;;;;5106734;28;20110;-69
2022/04/11 09:16:19;;;;;;;8.65;2.75;;;15.70;95.70;;;;;;5105028;28;20036;-69
2022/04/11 09:18:48;;;;;;;5.40;2.80;;;15.90;95.00;;;;;;5106477;28;20116;-69
2022/04/11 09:21:14;;;;;;;7.13;2.92;;;16.60;94.10;;;;;;5107415;28;20043;-70
2022/04/11 09:23:39;;;;;;;9.10;2.58;;;18.50;93.00;;;;;;5089146;28;20097;-70
2022/04/11 09:26:23;;;;;;;6.65;3.20;;;19.40;87.90;;;;;;5105883;28;20052;-70
2022/04/11 09:28:58;;;;;;;6.57;3.17;;;20.40;80.80;;;;;;5112547;28;20097;-70
2022/04/11 09:31:25;;;;;;;7.05;2.90;;;22.30;75.50;;;;;;5116070;28;20047;-69
2022/04/11 09:33:51;;;;;;;7.30;2.75;;;24.40;67.50;;;;;;5117647;28;20303;-70
2022/04/11 09:36:17;;;;;;;5.15;2.35;;;26.30;60.70;;;;;;5096343;28;20047;-70
2022/04/11 09:38:42;;;;;;;7.07;2.50;;;28.00;56.00;;;;;;5116938;28;20070;-70
2022/04/11 09:41:08;;;;;;;6.32;2.53;;;29.30;53.20;;;;;;5117900;28;20253;-70
2022/04/11 09:43:34;;;;;;;5.32;2.28;;;30.70;51.20;;;;;;5106436;28;20450;-70
2022/04/11 09:46:02;;;;;;;4.70;2.20;;;32.10;48.90;;;;;;5106672;28;20043;-71
2022/04/11 09:48:32;;;;;;;3.75;2.00;;;32.60;46.60;;;;;;5087640;28;20441;-70
2022/04/11 09:51:01;;;;;;;5.82;2.10;;;33.00;44.50;;;;;;5086988;28;20109;-70
2022/04/11 09:53:34;;;;;;;5.93;2.40;;;34.00;42.20;;;;;;5117008;28;20051;-70
2022/04/11 09:56:08;;;;;;;4.20;2.00;;;34.80;40.90;;;;;;5108869;28;20043;-70
2022/04/11 09:58:36;;;;;;;6.40;2.25;;;35.10;41.30;;;;;;5127836;28;20047;-70
2022/04/11 10:01:03;;;;;;;4.40;1.73;;;35.10;39.70;;;;;;5110035;27;20050;-70
2022/04/11 10:03:29;;;;;;;5.10;2.10;;;35.40;38.80;;;;;;5131874;27;20043;-71
2022/04/11 10:05:56;;;;;;;5.32;2.17;;;35.30;38.40;;;;;;5119265;27;20082;-70
2022/04/11 10:08:26;;;;;;;5.72;2.00;;;35.80;38.50;;;;;;5110768;28;20369;-70
2022/04/11 10:10:54;;;;;;;5.53;1.90;;;36.00;36.60;;;;;;5109956;28;20043;-70
2022/04/11 10:13:20;;;;;;;5.32;1.80;;;35.70;36.20;;;;;;5092958;28;20142;-70
2022/04/11 10:15:48;;;;;;;4.00;1.80;;;35.80;36.20;;;;;;5093326;27;20122;-70
2022/04/11 10:18:23;;;;;;;3.50;1.80;;;36.60;35.20;;;;;;5131621;27;20043;-70
2022/04/11 10:20:51;;;;;;;4.20;2.00;;;37.30;35.30;;;;;;5130611;27;20447;-71
2022/04/11 10:23:34;;;;;;;5.72;2.15;;;37.30;35.20;;;;;;5112151;27;20090;-70
2022/04/11 10:26:03;;;;;;;5.43;2.00;;;37.20;35.10;;;;;;5089190;28;20188;-70
2022/04/11 10:28:30;;;;;;;7.15;2.30;;;37.40;35.20;;;;;;5086927;28;20079;-78
2022/04/11 10:31:05;;;;;;;5.93;2.13;;;37.20;34.20;;;;;;5085499;28;20044;-78
2022/04/11 10:33:43;;;;;;;6.13;2.25;;;36.70;34.30;;;;;;5095220;27;20088;-79
2022/04/11 10:36:32;;;;;;;4.68;2.30;;;37.00;34.40;;;;;;5127148;27;20388;-78
2022/04/11 10:39:18;;;;;;;5.95;2.22;;;37.80;34.40;;;;;;5127415;27;20046;-79
2022/04/11 10:41:58;;;;;;;5.15;2.30;;;38.50;34.70;;;;;;5108376;27;20062;-80
2022/04/11 10:44:35;;;;;;;5.25;2.05;;;38.60;33.60;;;;;;5116243;27;20123;-79
2022/04/11 10:47:10;;;;;;;7.50;2.40;;;37.70;33.20;;;;;;5106174;28;20048;-79
2022/04/11 10:49:44;;;;;;;7.13;2.00;;;36.30;33.20;;;;;;5106041;28;20490;-80
2022/04/11 10:52:29;;;;;;;5.15;2.20;;;35.60;33.90;;;;;;5087444;28;20047;-78
2022/04/11 10:54:57;;;;;;;6.93;2.30;;;36.20;34.10;;;;;;5106020;28;20124;-78
2022/04/11 10:57:33;;;;;;;5.45;2.10;;;36.20;33.80;;;;;;5087341;28;20464;-78
2022/04/11 11:00:08;;;;;;;4.30;2.00;;;35.90;33.30;;;;;;5103495;27;20768;-79
2022/04/11 11:03:01;;;;;;;5.50;2.20;;;36.50;33.30;;;;;;5110003;27;20430;-79
2022/04/11 11:05:36;;;;;;;4.13;1.80;;;35.80;33.70;;;;;;5126313;27;20100;-79
2022/04/11 11:08:11;;;;;;;5.25;1.85;;;36.90;33.70;;;;;;5126826;27;20058;-79
2022/04/11 11:10:43;;;;;;;4.15;1.90;;;38.30;33.60;;;;;;5090310;28;20480;-79
2022/04/11 11:13:27;;;;;;;5.80;1.90;;;38.50;32.70;;;;;;5116430;27;20474;-78
2022/04/11 11:15:54;;;;;;;5.68;1.98;;;38.90;32.60;;;;;;5127830;27;20062;-71
2022/04/11 11:18:20;;;;;;;5.93;2.20;;;39.00;32.00;;;;;;5122156;27;20055;-71
2022/04/11 11:20:58;;;;;;;3.85;1.90;;;37.60;32.10;;;;;;5108788;27;20050;-71
2022/04/11 11:23:34;;;;;;;4.88;2.10;;;37.40;32.00;;;;;;5112512;27;20039;-71
2022/04/11 11:26:11;;;;;;;4.35;1.83;;;37.30;32.60;;;;;;5108092;28;20042;-71
2022/04/11 11:28:40;;;;;;;4.88;2.10;;;36.90;32.80;;;;;;5073629;27;20055;-71
2022/04/11 11:31:06;;;;;;;4.68;2.10;;;38.00;32.80;;;;;;5113262;27;20395;-71
2022/04/11 11:33:31;;;;;;;7.85;2.40;;;38.80;32.50;;;;;;5107671;27;20047;-71
2022/04/11 11:35:58;;;;;;;5.68;2.30;;;38.60;31.80;;;;;;5091002;27;20120;-71
2022/04/11 11:38:26;;;;;;;5.65;2.10;;;38.50;31.90;;;;;;5110460;27;20051;-71
2022/04/11 11:41:00;;;;;;;5.45;2.10;;;38.90;32.00;;;;;;5107427;27;20130;-72
2022/04/11 11:43:27;;;;;;;;;;;38.80;32.60;;;;;;5130631;27;20094;-71
2022/04/11 11:46:00;;;;;;;3.88;2.05;;;37.90;31.50;;;;;;5128182;27;20361;-71
2022/04/11 11:48:28;;;;;;;5.75;2.22;;;37.40;31.50;;;;;;5110144;27;20039;-71
2022/04/11 11:50:58;;;;;;;6.20;2.30;;;36.60;31.80;;;;;;5107511;27;20051;-71
2022/04/11 11:53:25;;;;;;;5.53;2.40;;;35.60;31.80;;;;;;5100304;27;20570;-73
2022/04/11 11:55:58;;;;;;;6.18;2.40;;;35.20;31.90;;;;;;5128978;27;20123;-71
2022/04/11 11:58:40;;;;;;;5.07;2.50;;;35.30;32.10;;;;;;5090375;27;20082;-72
2022/04/11 12:01:11;;;;;;;3.95;2.25;;;35.30;31.90;;;;;;5100743;27;20441;-72
2022/04/11 12:06:26;;;;;;;5.70;2.25;;;34.50;32.30;;;;;;5126880;27;20134;-72
2022/04/11 12:09:03;;;;;;;4.82;2.35;;;34.30;32.30;;;;;;5109776;27;20103;-72
2022/04/11 12:11:29;;;;;;;5.88;2.42;;;33.90;32.30;;;;;;5126973;27;20069;-72
2022/04/11 12:14:03;;;;;;;5.82;2.45;;;33.50;32.40;;;;;;5129422;27;20058;-72
2022/04/11 12:16:29;;;;;;;5.13;2.50;;;33.70;32.50;;;;;;5089669;28;20113;-72
2022/04/11 12:19:00;;;;;;;4.93;2.38;;;34.50;32.50;;;;;;5073608;28;20118;-71
2022/04/11 12:21:33;;;;;;;7.20;2.60;;;34.60;33.10;;;;;;5086574;28;20059;-71
2022/04/11 12:23:59;;;;;;;4.43;2.25;;;35.50;32.60;;;;;;5086987;28;20404;-71
2022/04/11 12:26:39;;;;;;;5.78;2.40;;;35.50;31.80;;;;;;5104851;28;20076;-71
2022/04/11 12:29:16;;;;;;;4.55;2.15;;;34.60;32.10;;;;;;5106743;28;20063;-71
2022/04/11 12:31:55;;;;;;;6.57;2.58;;;33.80;32.10;;;;;;5108355;28;20483;-71
2022/04/11 12:34:30;;;;;;;5.53;2.53;;;31.40;32.50;;;;;;5090221;28;20052;-71
2022/04/11 12:37:01;;;;;;;4.50;2.60;;;29.70;33.50;;;;;;5107839;28;20118;-72
2022/04/11 12:39:27;;;;;;;4.68;2.60;;;27.90;33.90;;;;;;5105760;28;20499;-71
2022/04/11 12:41:53;;;;;;;5.28;2.30;;;26.10;34.60;;;;;;5107347;28;20119;-71
2022/04/11 12:44:20;;;;;;;5.85;2.60;;;24.80;35.30;;;;;;5106115;28;20054;-70
2022/04/11 12:47:04;;;;;;;6.95;2.45;;;23.70;36.40;;;;;;5107768;28;20096;-70
2022/04/11 12:49:55;;;;;;;4.65;2.50;;;22.70;37.70;;;;;;5089127;28;20130;-71
2022/04/11 12:52:22;;;;;;;6.30;2.97;;;22.10;38.70;;;;;;5090169;28;20118;-71
2022/04/11 12:55:00;;;;;;;5.55;2.65;;;21.30;39.70;;;;;;5109483;28;20541;-70
2022/04/11 12:57:31;;;;;;;6.70;2.85;;;20.60;40.60;;;;;;5107013;28;20089;-71
2022/04/11 13:00:16;;;;;;;5.82;2.55;;;20.00;41.30;;;;;;5106729;28;20083;-71